createdAt,value
2023-05-22T00:01:46.663Z,16.70
2023-05-22T00:04:21.126Z,16.60
2023-05-22T00:06:48.921Z,16.70
2023-05-22T00:09:15.861Z,16.70
2023-05-22T00:11:43.141Z,16.80
2023-05-22T00:14:09.978Z,16.70
2023-05-22T00:16:36.740Z,16.60
2023-05-22T00:19:03.906Z,16.60
2023-05-22T00:21:34.790Z,16.60
2023-05-22T00:24:02.151Z,16.60
2023-05-22T00:26:28.895Z,16.60
2023-05-22T00:28:55.750Z,16.50
2023-05-22T00:31:22.869Z,16.40
2023-05-22T00:33:49.836Z,16.40
2023-05-22T00:36:16.852Z,16.30
2023-05-22T00:38:43.550Z,16.20
2023-05-22T00:41:10.386Z,16.10
2023-05-22T00:43:39.428Z,16.00
2023-05-22T00:46:07.737Z,15.80
2023-05-22T00:48:34.619Z,15.70
2023-05-22T00:51:01.897Z,15.60
2023-05-22T00:53:30.396Z,15.70
2023-05-22T00:55:58.508Z,15.80
2023-05-22T00:58:27.173Z,15.80
2023-05-22T01:00:55.429Z,15.70
2023-05-22T01:03:27.165Z,15.50
2023-05-22T01:05:55.752Z,15.40
2023-05-22T01:08:22.829Z,15.40
2023-05-22T01:10:55.984Z,15.30
2023-05-22T01:13:49.808Z,15.30
2023-05-22T01:16:25.968Z,15.40
2023-05-22T01:19:00.860Z,15.40
2023-05-22T01:21:37.607Z,15.30
2023-05-22T01:24:45.822Z,15.40
2023-05-22T01:27:36.765Z,15.50
2023-05-22T01:30:41.037Z,15.40
2023-05-22T01:33:09.524Z,15.30
2023-05-22T01:35:39.579Z,15.40
2023-05-22T01:38:07.613Z,15.40
2023-05-22T01:40:34.757Z,15.50
2023-05-22T01:43:01.915Z,15.50
2023-05-22T01:45:28.760Z,15.50
2023-05-22T01:47:55.569Z,15.40
2023-05-22T01:50:22.616Z,15.20
2023-05-22T01:53:07.946Z,15.10
2023-05-22T01:55:47.516Z,15.00
2023-05-22T01:58:24.453Z,15.00
2023-05-22T02:00:54.695Z,14.90
2023-05-22T02:03:27.486Z,14.80
2023-05-22T02:05:55.793Z,14.80
2023-05-22T02:08:23.208Z,14.70
2023-05-22T02:10:52.262Z,14.80
2023-05-22T02:13:19.172Z,14.60
2023-05-22T02:15:47.549Z,14.70
2023-05-22T02:18:14.486Z,14.60
2023-05-22T02:20:45.633Z,14.50
2023-05-22T02:23:12.480Z,14.40
2023-05-22T02:25:39.157Z,14.40
2023-05-22T02:28:05.848Z,14.30
2023-05-22T02:30:32.935Z,14.30
2023-05-22T02:33:00.150Z,14.40
2023-05-22T02:35:27.104Z,14.50
2023-05-22T02:37:53.813Z,14.50
2023-05-22T02:40:20.626Z,14.30
2023-05-22T02:42:47.412Z,14.30
2023-05-22T02:45:14.182Z,14.20
2023-05-22T02:47:41.075Z,14.10
2023-05-22T02:50:08.229Z,14.10
2023-05-22T02:52:39.657Z,14.10
2023-05-22T02:55:08.180Z,14.00
2023-05-22T02:57:35.687Z,14.00
2023-05-22T03:00:03.544Z,14.00
2023-05-22T03:02:32.491Z,14.00
2023-05-22T03:04:59.732Z,14.00
2023-05-22T03:07:27.125Z,13.90
2023-05-22T03:09:54.092Z,13.60
2023-05-22T03:12:20.875Z,13.60
2023-05-22T03:14:47.598Z,13.70
2023-05-22T03:17:14.453Z,13.70
2023-05-22T03:19:41.713Z,13.80
2023-05-22T03:22:08.489Z,13.80
2023-05-22T03:24:35.261Z,13.80
2023-05-22T03:27:02.250Z,13.60
2023-05-22T03:29:29.053Z,13.50
2023-05-22T03:31:57.058Z,13.50
2023-05-22T03:34:24.024Z,13.50
2023-05-22T03:36:50.812Z,13.50
2023-05-22T03:39:17.545Z,13.60
2023-05-22T03:41:44.232Z,13.60
2023-05-22T03:44:10.923Z,13.60
2023-05-22T03:46:37.632Z,13.80
2023-05-22T03:49:04.368Z,13.90
2023-05-22T03:51:31.907Z,14.00
2023-05-22T03:53:58.908Z,13.90
2023-05-22T03:56:25.842Z,13.90
2023-05-22T03:58:52.820Z,14.00
2023-05-22T04:01:19.551Z,14.00
2023-05-22T04:03:46.284Z,14.00
2023-05-22T04:06:13.797Z,13.90
2023-05-22T04:08:41.071Z,13.90
2023-05-22T04:11:08.302Z,13.90
2023-05-22T04:13:35.144Z,13.90
2023-05-22T04:16:02.199Z,13.90
2023-05-22T04:18:29.083Z,13.90
2023-05-22T04:20:55.919Z,13.80
2023-05-22T04:23:22.653Z,13.90
2023-05-22T04:25:49.755Z,14.00
2023-05-22T04:28:17.681Z,13.90
2023-05-22T04:30:44.690Z,14.00
2023-05-22T04:33:12.712Z,14.00
2023-05-22T04:35:40.890Z,14.10
2023-05-22T04:38:07.947Z,14.10
2023-05-22T04:40:34.739Z,14.10
2023-05-22T04:43:01.600Z,14.10
2023-05-22T04:45:29.083Z,14.20
2023-05-22T04:47:56.324Z,14.20
2023-05-22T04:50:24.135Z,14.30
2023-05-22T04:52:51.270Z,14.50
2023-05-22T04:55:19.267Z,14.80
2023-05-22T04:57:47.437Z,14.80
2023-05-22T05:00:16.421Z,14.80
2023-05-22T05:02:43.517Z,15.00
2023-05-22T05:05:10.543Z,15.10
2023-05-22T05:07:38.761Z,15.30
2023-05-22T05:10:07.126Z,15.50
2023-05-22T05:12:34.074Z,15.60
2023-05-22T05:15:00.932Z,15.90
2023-05-22T05:17:27.736Z,16.00
2023-05-22T05:19:54.497Z,16.30
2023-05-22T05:22:21.300Z,16.70
2023-05-22T05:24:48.105Z,17.10
2023-05-22T05:27:15.266Z,17.30
2023-05-22T05:29:42.525Z,17.50
2023-05-22T05:32:11.376Z,17.70
2023-05-22T05:34:38.275Z,18.00
2023-05-22T05:37:05.624Z,18.30
2023-05-22T05:39:32.631Z,18.20
2023-05-22T05:42:00.513Z,18.50
2023-05-22T05:44:27.275Z,18.70
2023-05-22T05:46:54.748Z,19.00
2023-05-22T05:49:22.523Z,19.10
2023-05-22T05:51:49.304Z,19.30
2023-05-22T05:54:16.309Z,19.10
2023-05-22T05:56:43.071Z,19.30
2023-05-22T05:59:09.954Z,19.30
2023-05-22T06:01:38.643Z,19.30
2023-05-22T06:04:05.680Z,19.40
2023-05-22T06:06:36.162Z,19.40
2023-05-22T06:09:05.668Z,19.70
2023-05-22T06:11:33.429Z,19.90
2023-05-22T06:14:03.118Z,20.10
2023-05-22T06:16:30.057Z,20.50
2023-05-22T06:18:59.041Z,20.80
2023-05-22T06:21:26.110Z,21.10
2023-05-22T06:23:53.262Z,21.10
2023-05-22T06:26:20.272Z,21.40
2023-05-22T06:28:47.036Z,21.40
2023-05-22T06:31:14.334Z,21.30
2023-05-22T06:33:43.279Z,21.30
2023-05-22T06:36:11.497Z,21.10
2023-05-22T06:38:39.260Z,21.40
2023-05-22T06:41:06.511Z,21.40
2023-05-22T06:43:33.447Z,21.50
2023-05-22T06:46:00.307Z,21.60
2023-05-22T06:48:27.214Z,21.80
2023-05-22T06:50:54.024Z,22.20
2023-05-22T06:53:20.930Z,22.30
2023-05-22T06:55:47.879Z,22.00
2023-05-22T06:58:14.605Z,22.00
2023-05-22T07:00:41.621Z,22.20
2023-05-22T07:03:08.560Z,22.20
2023-05-22T07:05:35.422Z,22.20
2023-05-22T07:08:02.192Z,22.30
2023-05-22T07:10:28.995Z,22.20
2023-05-22T07:12:55.805Z,22.40
2023-05-22T07:15:22.769Z,22.40
2023-05-22T07:17:49.613Z,22.60
2023-05-22T07:20:16.830Z,22.50
2023-05-22T07:22:43.668Z,22.60
2023-05-22T07:25:10.644Z,22.80
2023-05-22T07:27:37.507Z,23.00
2023-05-22T07:30:04.608Z,23.00
2023-05-22T07:32:31.413Z,23.20
2023-05-22T07:34:58.452Z,23.30
2023-05-22T07:37:25.468Z,23.30
2023-05-22T07:39:52.206Z,23.10
2023-05-22T07:42:18.974Z,23.30
2023-05-22T07:44:45.689Z,23.30
2023-05-22T07:47:12.413Z,23.30
2023-05-22T07:49:39.353Z,23.50
2023-05-22T07:52:06.717Z,23.70
2023-05-22T07:54:33.504Z,23.90
2023-05-22T07:57:03.739Z,24.00
2023-05-22T07:59:30.697Z,23.90
2023-05-22T08:01:58.427Z,24.00
2023-05-22T08:04:26.069Z,24.00
2023-05-22T08:06:53.074Z,24.00
2023-05-22T08:09:21.632Z,24.10
2023-05-22T08:11:48.554Z,24.20
2023-05-22T08:14:15.397Z,24.60
2023-05-22T08:16:42.228Z,24.70
2023-05-22T08:19:09.217Z,24.60
2023-05-22T08:21:37.463Z,24.70
2023-05-22T08:24:04.765Z,24.80
2023-05-22T08:26:33.288Z,24.80
2023-05-22T08:29:00.994Z,24.60
2023-05-22T08:31:30.976Z,24.50
2023-05-22T08:34:02.486Z,24.80
2023-05-22T08:36:33.950Z,24.90
2023-05-22T08:39:01.499Z,25.00
2023-05-22T08:41:29.370Z,24.80
2023-05-22T08:43:56.201Z,24.80
2023-05-22T08:46:26.320Z,25.10
2023-05-22T08:48:57.167Z,25.00
2023-05-22T08:51:28.417Z,25.30
2023-05-22T08:54:00.588Z,25.30
2023-05-22T08:56:29.492Z,25.40
2023-05-22T08:58:58.258Z,25.30
2023-05-22T09:01:29.034Z,25.40
2023-05-22T09:04:00.750Z,25.30
2023-05-22T09:06:29.375Z,25.50
2023-05-22T09:08:57.828Z,25.70
2023-05-22T09:11:25.191Z,25.50
2023-05-22T09:13:52.178Z,25.40
2023-05-22T09:16:19.742Z,25.50
2023-05-22T09:18:46.638Z,25.90
2023-05-22T09:21:28.964Z,25.90
2023-05-22T09:24:01.377Z,25.50
2023-05-22T09:26:33.003Z,25.70
2023-05-22T09:29:00.464Z,25.80
2023-05-22T09:31:29.342Z,25.90
2023-05-22T09:33:56.453Z,25.90
2023-05-22T09:36:33.700Z,26.10
2023-05-22T09:39:01.954Z,26.10
2023-05-22T09:41:30.527Z,26.10
2023-05-22T09:43:58.702Z,26.00
2023-05-22T09:46:26.549Z,25.90
2023-05-22T09:48:54.274Z,25.70
2023-05-22T09:51:23.867Z,26.00
2023-05-22T09:53:51.383Z,26.20
2023-05-22T09:56:30.755Z,26.50
2023-05-22T09:59:08.766Z,26.50
2023-05-22T10:01:38.626Z,26.70
2023-05-22T10:04:08.318Z,26.70
2023-05-22T10:06:37.118Z,26.60
2023-05-22T10:09:06.992Z,26.80
2023-05-22T10:11:35.523Z,26.80
2023-05-22T10:14:05.147Z,26.50
2023-05-22T10:16:34.339Z,26.30
2023-05-22T10:19:01.245Z,26.30
2023-05-22T10:21:32.088Z,26.60
2023-05-22T10:24:01.179Z,26.20
2023-05-22T10:26:29.603Z,25.60
2023-05-22T10:29:18.660Z,25.90
2023-05-22T10:31:57.179Z,26.40
2023-05-22T10:34:48.788Z,26.20
2023-05-22T10:37:51.539Z,26.30
2023-05-22T10:40:28.694Z,26.50
2023-05-22T10:43:03.963Z,26.30
2023-05-22T10:45:31.922Z,26.10
2023-05-22T10:48:09.452Z,26.00
2023-05-22T10:50:36.525Z,26.30
2023-05-22T10:53:25.999Z,26.60
2023-05-22T10:55:54.617Z,26.80
2023-05-22T10:58:32.126Z,26.70
2023-05-22T11:01:13.187Z,26.90
2023-05-22T11:03:57.806Z,27.00
2023-05-22T11:06:39.344Z,26.90
2023-05-22T11:09:29.047Z,26.70
2023-05-22T11:12:24.769Z,26.70
2023-05-22T11:14:58.670Z,27.00
2023-05-22T11:17:27.700Z,26.90
2023-05-22T11:19:59.844Z,27.10
2023-05-22T11:22:37.576Z,27.30
2023-05-22T11:25:16.799Z,27.00
2023-05-22T11:27:44.272Z,26.80
2023-05-22T11:30:12.657Z,26.70
2023-05-22T11:32:44.822Z,27.20
2023-05-22T11:35:30.070Z,27.50
2023-05-22T11:37:57.164Z,27.40
2023-05-22T11:40:26.009Z,27.30
2023-05-22T11:42:53.494Z,27.50
2023-05-22T11:45:20.513Z,27.90
2023-05-22T11:47:48.457Z,28.20
2023-05-22T11:50:22.581Z,28.10
2023-05-22T11:52:59.337Z,28.30
2023-05-22T11:55:26.178Z,28.10
2023-05-22T11:57:55.484Z,27.80
2023-05-22T12:00:22.245Z,28.00
2023-05-22T12:02:49.222Z,28.00
2023-05-22T12:05:16.589Z,28.00
2023-05-22T12:07:43.670Z,28.10
2023-05-22T12:10:11.099Z,28.30
2023-05-22T12:12:38.617Z,28.20
2023-05-22T12:15:07.173Z,28.00
2023-05-22T12:17:37.465Z,28.00
2023-05-22T12:20:05.470Z,27.80
2023-05-22T12:22:32.314Z,28.00
2023-05-22T12:24:59.054Z,27.80
2023-05-22T12:27:33.365Z,27.90
2023-05-22T12:30:10.218Z,28.00
2023-05-22T12:32:36.929Z,28.20
2023-05-22T12:35:03.996Z,28.40
2023-05-22T12:37:33.612Z,28.40
2023-05-22T12:40:03.541Z,28.40
2023-05-22T12:42:30.616Z,28.30
2023-05-22T12:44:58.218Z,27.90
2023-05-22T12:47:25.817Z,27.90
2023-05-22T12:49:53.110Z,28.00
2023-05-22T12:52:19.858Z,28.10
2023-05-22T12:54:46.734Z,28.10
2023-05-22T12:57:13.490Z,27.90
2023-05-22T12:59:40.993Z,27.90
2023-05-22T13:02:07.964Z,27.70
2023-05-22T13:04:34.828Z,28.00
2023-05-22T13:07:01.634Z,28.00
2023-05-22T13:09:28.470Z,28.00
2023-05-22T13:11:55.574Z,28.10
2023-05-22T13:14:22.417Z,27.90
2023-05-22T13:16:49.134Z,27.70
2023-05-22T13:19:16.286Z,27.60
2023-05-22T13:21:43.686Z,27.70
2023-05-22T13:24:10.384Z,27.90
2023-05-22T13:26:37.152Z,27.90
2023-05-22T13:29:04.308Z,27.60
2023-05-22T13:31:33.379Z,27.70
2023-05-22T13:34:02.940Z,27.60
2023-05-22T13:36:30.134Z,27.90
2023-05-22T13:38:57.176Z,28.30
2023-05-22T13:41:24.002Z,28.20
2023-05-22T13:43:50.687Z,28.10
2023-05-22T13:46:18.227Z,27.90
2023-05-22T13:48:45.818Z,28.00
2023-05-22T13:51:12.608Z,28.20
2023-05-22T13:53:39.378Z,28.20
2023-05-22T13:56:06.330Z,28.40
2023-05-22T13:58:33.195Z,28.30
2023-05-22T14:00:59.924Z,28.50
2023-05-22T14:03:26.709Z,28.60
2023-05-22T14:05:53.554Z,28.80
2023-05-22T14:08:20.363Z,28.70
2023-05-22T14:10:47.117Z,28.60
2023-05-22T14:13:15.212Z,28.50
2023-05-22T14:15:42.699Z,28.50
2023-05-22T14:18:09.617Z,28.80
2023-05-22T14:20:36.432Z,28.90
2023-05-22T14:23:03.156Z,29.00
2023-05-22T14:25:29.892Z,28.90
2023-05-22T14:27:56.807Z,28.70
2023-05-22T14:30:23.930Z,28.40
2023-05-22T14:32:50.871Z,28.50
2023-05-22T14:35:17.948Z,28.30
2023-05-22T14:37:46.203Z,28.70
2023-05-22T14:40:12.981Z,28.90
2023-05-22T14:42:39.755Z,29.10
2023-05-22T14:45:06.886Z,28.70
2023-05-22T14:47:33.715Z,28.50
2023-05-22T14:50:14.633Z,28.40
2023-05-22T14:52:44.667Z,28.60
2023-05-22T14:55:11.439Z,28.80
2023-05-22T14:57:38.178Z,28.90
2023-05-22T15:00:09.761Z,29.20
2023-05-22T15:02:37.096Z,29.40
2023-05-22T15:05:04.502Z,29.10
2023-05-22T15:07:42.942Z,28.60
2023-05-22T15:10:11.358Z,28.80
2023-05-22T15:12:38.208Z,28.90
2023-05-22T15:15:05.352Z,28.80
2023-05-22T15:17:32.176Z,28.70
2023-05-22T15:19:58.959Z,28.40
2023-05-22T15:22:25.707Z,28.40
2023-05-22T15:25:05.018Z,28.20
2023-05-22T15:27:32.729Z,28.20
2023-05-22T15:29:59.411Z,28.10
2023-05-22T15:32:26.547Z,27.80
2023-05-22T15:34:53.381Z,27.90
2023-05-22T15:37:20.161Z,28.00
2023-05-22T15:39:46.911Z,28.10
2023-05-22T15:42:13.723Z,27.90
2023-05-22T15:44:40.525Z,27.30
2023-05-22T15:47:07.308Z,27.00
2023-05-22T15:49:34.074Z,26.90
2023-05-22T15:52:00.815Z,26.90
2023-05-22T15:54:27.598Z,26.80
2023-05-22T15:56:54.381Z,26.50
2023-05-22T15:59:21.220Z,26.50
2023-05-22T16:01:47.985Z,26.40
2023-05-22T16:04:14.976Z,26.30
2023-05-22T16:06:41.804Z,26.30
2023-05-22T16:09:09.802Z,26.20
2023-05-22T16:11:37.800Z,26.10
2023-05-22T16:14:04.822Z,25.90
2023-05-22T16:16:31.642Z,25.70
2023-05-22T16:18:58.466Z,25.70
2023-05-22T16:21:25.358Z,25.60
2023-05-22T16:23:52.823Z,25.60
2023-05-22T16:26:19.840Z,25.70
2023-05-22T16:28:46.671Z,25.70
2023-05-22T16:31:17.617Z,25.70
2023-05-22T16:33:45.766Z,25.60
2023-05-22T16:36:12.512Z,25.60
2023-05-22T16:38:39.311Z,25.80
2023-05-22T16:41:06.121Z,25.70
2023-05-22T16:43:32.993Z,25.80
2023-05-22T16:45:59.840Z,25.80
2023-05-22T16:48:26.754Z,25.70
2023-05-22T16:50:53.692Z,25.60
2023-05-22T16:53:20.582Z,25.60
2023-05-22T16:55:47.310Z,25.60
2023-05-22T16:58:14.114Z,25.70
2023-05-22T17:00:41.783Z,25.60
2023-05-22T17:03:09.562Z,25.60
2023-05-22T17:05:37.457Z,25.60
2023-05-22T17:08:04.756Z,25.50
2023-05-22T17:10:31.502Z,25.40
2023-05-22T17:12:58.211Z,25.30
2023-05-22T17:15:24.954Z,25.30
2023-05-22T17:17:51.675Z,25.30
2023-05-22T17:20:18.942Z,25.20
2023-05-22T17:22:45.705Z,25.20
2023-05-22T17:25:13.300Z,25.10
2023-05-22T17:27:40.198Z,25.00
2023-05-22T17:30:07.740Z,25.00
2023-05-22T17:32:35.341Z,24.90
2023-05-22T17:35:02.364Z,25.00
2023-05-22T17:37:29.077Z,25.00
2023-05-22T17:39:55.862Z,25.00
2023-05-22T17:42:22.954Z,24.90
2023-05-22T17:44:49.794Z,24.90
2023-05-22T17:47:16.618Z,24.80
2023-05-22T17:49:43.455Z,24.70
2023-05-22T17:52:11.089Z,24.70
2023-05-22T17:54:37.842Z,24.70
2023-05-22T17:57:04.660Z,24.50
2023-05-22T17:59:33.017Z,24.50
2023-05-22T18:01:59.878Z,24.50
2023-05-22T18:04:26.679Z,24.40
2023-05-22T18:06:53.550Z,24.30
2023-05-22T18:09:20.399Z,24.40
2023-05-22T18:11:47.145Z,24.30
2023-05-22T18:14:13.924Z,24.20
2023-05-22T18:16:40.877Z,24.20
2023-05-22T18:19:07.972Z,24.10
2023-05-22T18:21:34.911Z,23.90
2023-05-22T18:24:01.716Z,23.80
2023-05-22T18:26:28.518Z,23.70
2023-05-22T18:28:56.142Z,23.60
2023-05-22T18:31:23.003Z,23.50
2023-05-22T18:33:49.908Z,23.40
2023-05-22T18:36:16.857Z,23.30
2023-05-22T18:38:44.252Z,23.30
2023-05-22T18:41:11.131Z,23.30
2023-05-22T18:43:38.100Z,23.20
2023-05-22T18:46:04.949Z,23.10
2023-05-22T18:48:33.157Z,22.90
2023-05-22T18:51:00.734Z,22.70
2023-05-22T18:53:27.581Z,22.60
2023-05-22T18:55:54.377Z,22.60
2023-05-22T18:58:21.763Z,22.50
2023-05-22T19:00:48.875Z,22.40
2023-05-22T19:03:15.730Z,22.20
2023-05-22T19:05:43.109Z,22.20
2023-05-22T19:08:09.898Z,22.00
2023-05-22T19:10:36.657Z,21.90
2023-05-22T19:13:03.934Z,21.80
2023-05-22T19:15:30.837Z,21.80
2023-05-22T19:17:57.829Z,21.60
2023-05-22T19:20:24.622Z,21.50
2023-05-22T19:22:51.524Z,21.30
2023-05-22T19:25:18.600Z,21.20
2023-05-22T19:27:46.067Z,21.10
2023-05-22T19:30:15.325Z,21.10
2023-05-22T19:32:43.629Z,21.10
2023-05-22T19:35:11.295Z,21.10
2023-05-22T19:37:38.129Z,21.10
2023-05-22T19:40:05.995Z,21.10
2023-05-22T19:42:33.071Z,21.10
2023-05-22T19:44:59.915Z,21.00
2023-05-22T19:47:27.282Z,21.00
2023-05-22T19:49:54.115Z,20.90
2023-05-22T19:52:20.995Z,20.90
2023-05-22T19:54:47.778Z,20.90
2023-05-22T19:57:14.687Z,20.90
2023-05-22T19:59:41.541Z,20.80
2023-05-22T20:02:08.444Z,20.80
2023-05-22T20:04:35.312Z,20.60
2023-05-22T20:07:03.819Z,20.40
2023-05-22T20:09:30.566Z,20.20
2023-05-22T20:11:57.517Z,20.30
2023-05-22T20:14:24.222Z,20.30
2023-05-22T20:16:51.471Z,20.30
2023-05-22T20:19:18.946Z,20.40
2023-05-22T20:21:49.043Z,20.40
2023-05-22T20:24:21.054Z,20.30
2023-05-22T20:26:48.191Z,20.30
2023-05-22T20:29:15.084Z,20.20
2023-05-22T20:31:41.933Z,20.00
2023-05-22T20:34:12.182Z,20.00
2023-05-22T20:36:39.742Z,19.90
2023-05-22T20:39:07.497Z,19.70
2023-05-22T20:41:34.267Z,19.60
2023-05-22T20:44:02.630Z,19.60
2023-05-22T20:46:29.551Z,19.60
2023-05-22T20:48:58.406Z,19.60
2023-05-22T20:51:32.680Z,19.50
2023-05-22T20:54:00.316Z,19.40
2023-05-22T20:56:27.631Z,19.40
2023-05-22T20:58:54.903Z,19.40
2023-05-22T21:01:22.189Z,19.30
2023-05-22T21:03:51.478Z,19.20
2023-05-22T21:06:18.959Z,19.00
2023-05-22T21:08:45.878Z,19.00
2023-05-22T21:11:13.032Z,19.00
2023-05-22T21:13:39.941Z,19.00
2023-05-22T21:16:06.905Z,19.00
2023-05-22T21:18:33.621Z,19.00
2023-05-22T21:21:00.957Z,19.00
2023-05-22T21:23:27.761Z,19.10
2023-05-22T21:25:54.853Z,19.00
2023-05-22T21:28:21.536Z,19.00
2023-05-22T21:30:48.263Z,19.00
2023-05-22T21:33:15.129Z,19.00
2023-05-22T21:35:41.935Z,19.00
2023-05-22T21:38:08.738Z,19.00
2023-05-22T21:40:35.729Z,18.90
2023-05-22T21:43:03.727Z,18.90
2023-05-22T21:45:31.166Z,18.90
2023-05-22T21:47:57.923Z,19.00
2023-05-22T21:50:24.725Z,19.00
2023-05-22T21:52:51.478Z,18.90
2023-05-22T21:55:18.288Z,18.90
2023-05-22T21:57:45.965Z,18.90
2023-05-22T22:00:13.405Z,18.80
2023-05-22T22:02:40.714Z,18.80
2023-05-22T22:05:08.004Z,18.80
2023-05-22T22:07:34.843Z,18.80
2023-05-22T22:10:01.596Z,18.70
2023-05-22T22:12:28.345Z,18.70
2023-05-22T22:14:56.418Z,18.70
2023-05-22T22:17:23.752Z,18.70
2023-05-22T22:19:53.386Z,18.60
2023-05-22T22:22:22.581Z,18.60
2023-05-22T22:24:49.484Z,18.50
2023-05-22T22:27:16.543Z,18.40
2023-05-22T22:29:43.979Z,18.30
2023-05-22T22:32:10.865Z,18.30
2023-05-22T22:34:37.936Z,18.30
2023-05-22T22:37:06.154Z,18.30
2023-05-22T22:39:32.934Z,18.20
2023-05-22T22:42:04.207Z,18.30
2023-05-22T22:44:32.448Z,18.20
2023-05-22T22:47:01.866Z,18.20
2023-05-22T22:49:28.604Z,18.00
2023-05-22T22:51:55.357Z,17.70
2023-05-22T22:54:22.085Z,17.70
2023-05-22T22:56:49.818Z,17.70
2023-05-22T22:59:16.933Z,17.80
2023-05-22T23:01:43.994Z,17.80
2023-05-22T23:04:11.304Z,17.70
2023-05-22T23:06:38.456Z,17.60
2023-05-22T23:09:05.298Z,17.40
2023-05-22T23:11:37.492Z,17.50
2023-05-22T23:14:07.711Z,17.30
2023-05-22T23:16:41.088Z,17.20
2023-05-22T23:19:10.505Z,17.10
2023-05-22T23:21:37.356Z,17.00
2023-05-22T23:24:04.849Z,17.10
2023-05-22T23:26:32.016Z,17.10
2023-05-22T23:29:00.202Z,17.20
2023-05-22T23:31:30.351Z,17.30
2023-05-22T23:33:58.226Z,17.30
2023-05-22T23:36:25.489Z,17.30
2023-05-22T23:38:52.222Z,17.20
2023-05-22T23:41:18.965Z,17.20
2023-05-22T23:43:46.494Z,17.10
2023-05-22T23:46:14.188Z,17.10
2023-05-22T23:48:41.924Z,17.10
2023-05-22T23:51:14.628Z,17.20
2023-05-22T23:53:42.060Z,17.10
2023-05-22T23:56:09.416Z,17.00
2023-05-22T23:58:38.001Z,16.80
